sensor_id;sensor_type;location;lat;lon;timestamp;P1;durP1;ratioP1;P2;durP2;ratioP2
35562;SDS011;21665;40.108;18.302;2022-07-03T08:19:58;13.65;;;6.40;;
35562;SDS011;21665;40.108;18.302;2022-07-03T08:22:33;13.10;;;6.20;;
35562;SDS011;21665;40.108;18.302;2022-07-03T08:25:09;15.38;;;5.82;;
35562;SDS011;21665;40.108;18.302;2022-07-03T08:27:38;12.38;;;5.72;;
35562;SDS011;21665;40.108;18.302;2022-07-03T08:30:06;16.10;;;5.80;;
35562;SDS011;21665;40.108;18.302;2022-07-03T08:32:34;11.60;;;5.63;;
35562;SDS011;21665;40.108;18.302;2022-07-03T08:35:00;15.10;;;6.88;;
35562;SDS011;21665;40.108;18.302;2022-07-03T08:37:27;9.57;;;5.43;;
35562;SDS011;21665;40.108;18.302;2022-07-03T08:39:54;13.05;;;5.15;;
35562;SDS011;21665;40.108;18.302;2022-07-03T08:42:21;20.48;;;6.15;;
35562;SDS011;21665;40.108;18.302;2022-07-03T08:44:49;15.32;;;7.03;;
35562;SDS011;21665;40.108;18.302;2022-07-03T08:47:18;15.23;;;5.68;;
35562;SDS011;21665;40.108;18.302;2022-07-03T08:49:46;17.02;;;5.65;;
35562;SDS011;21665;40.108;18.302;2022-07-03T08:52:14;13.20;;;5.70;;
35562;SDS011;21665;40.108;18.302;2022-07-03T08:54:59;10.70;;;5.05;;
35562;SDS011;21665;40.108;18.302;2022-07-03T08:57:40;14.68;;;5.50;;
35562;SDS011;21665;40.108;18.302;2022-07-03T09:00:59;18.38;;;5.60;;
35562;SDS011;21665;40.108;18.302;2022-07-03T09:03:41;11.93;;;5.50;;
35562;SDS011;21665;40.108;18.302;2022-07-03T09:06:16;16.63;;;5.35;;
35562;SDS011;21665;40.108;18.302;2022-07-03T09:08:43;15.65;;;5.82;;
35562;SDS011;21665;40.108;18.302;2022-07-03T09:11:23;12.88;;;6.47;;
35562;SDS011;21665;40.108;18.302;2022-07-03T09:13:53;12.80;;;6.32;;
35562;SDS011;21665;40.108;18.302;2022-07-03T09:16:40;13.80;;;5.60;;
35562;SDS011;21665;40.108;18.302;2022-07-03T09:19:17;15.23;;;5.75;;
35562;SDS011;21665;40.108;18.302;2022-07-03T09:22:41;19.85;;;7.05;;
35562;SDS011;21665;40.108;18.302;2022-07-03T09:29:09;13.48;;;6.07;;
35562;SDS011;21665;40.108;18.302;2022-07-03T09:31:39;10.65;;;5.78;;
35562;SDS011;21665;40.108;18.302;2022-07-03T09:34:06;12.75;;;6.40;;
35562;SDS011;21665;40.108;18.302;2022-07-03T09:36:38;20.83;;;6.40;;
35562;SDS011;21665;40.108;18.302;2022-07-03T09:41:58;11.40;;;5.75;;
35562;SDS011;21665;40.108;18.302;2022-07-03T09:44:33;12.63;;;5.72;;
35562;SDS011;21665;40.108;18.302;2022-07-03T09:47:25;11.70;;;6.05;;
35562;SDS011;21665;40.108;18.302;2022-07-03T09:50:02;14.35;;;6.80;;
35562;SDS011;21665;40.108;18.302;2022-07-03T09:52:47;11.23;;;5.90;;
35562;SDS011;21665;40.108;18.302;2022-07-03T09:55:15;12.70;;;6.47;;
35562;SDS011;21665;40.108;18.302;2022-07-03T10:00:25;14.45;;;5.93;;
35562;SDS011;21665;40.108;18.302;2022-07-03T10:05:44;16.17;;;6.95;;
35562;SDS011;21665;40.108;18.302;2022-07-03T10:08:12;13.47;;;7.13;;
35562;SDS011;21665;40.108;18.302;2022-07-03T10:13:12;11.88;;;5.90;;
35562;SDS011;21665;40.108;18.302;2022-07-03T10:15:41;18.13;;;6.97;;
35562;SDS011;21665;40.108;18.302;2022-07-03T10:18:10;10.63;;;5.72;;
35562;SDS011;21665;40.108;18.302;2022-07-03T10:20:39;13.63;;;5.82;;
35562;SDS011;21665;40.108;18.302;2022-07-03T10:23:16;16.13;;;8.50;;
35562;SDS011;21665;40.108;18.302;2022-07-03T10:25:46;12.98;;;5.82;;
35562;SDS011;21665;40.108;18.302;2022-07-03T10:28:14;12.88;;;5.88;;
35562;SDS011;21665;40.108;18.302;2022-07-03T10:30:43;12.90;;;5.65;;
35562;SDS011;21665;40.108;18.302;2022-07-03T10:33:11;15.35;;;6.82;;
35562;SDS011;21665;40.108;18.302;2022-07-03T10:35:39;12.65;;;5.53;;
35562;SDS011;21665;40.108;18.302;2022-07-03T10:40:54;17.40;;;7.32;;
35562;SDS011;21665;40.108;18.302;2022-07-03T10:43:52;13.48;;;6.78;;
35562;SDS011;21665;40.108;18.302;2022-07-03T10:46:37;12.02;;;6.35;;
35562;SDS011;21665;40.108;18.302;2022-07-03T10:49:06;16.33;;;6.43;;
35562;SDS011;21665;40.108;18.302;2022-07-03T10:54:31;14.07;;;5.53;;
35562;SDS011;21665;40.108;18.302;2022-07-03T10:57:06;12.30;;;6.60;;
35562;SDS011;21665;40.108;18.302;2022-07-03T11:07:29;9.53;;;5.53;;
35562;SDS011;21665;40.108;18.302;2022-07-03T11:15:48;13.40;;;6.85;;
35562;SDS011;21665;40.108;18.302;2022-07-03T11:18:27;13.27;;;6.15;;
35562;SDS011;21665;40.108;18.302;2022-07-03T11:23:52;14.60;;;5.78;;
35562;SDS011;21665;40.108;18.302;2022-07-03T11:26:42;11.30;;;6.07;;
35562;SDS011;21665;40.108;18.302;2022-07-03T11:29:24;12.88;;;5.95;;
35562;SDS011;21665;40.108;18.302;2022-07-03T11:31:55;16.48;;;6.30;;
35562;SDS011;21665;40.108;18.302;2022-07-03T11:34:22;19.10;;;5.90;;
35562;SDS011;21665;40.108;18.302;2022-07-03T11:36:49;18.35;;;6.47;;
35562;SDS011;21665;40.108;18.302;2022-07-03T11:39:15;12.15;;;6.05;;
35562;SDS011;21665;40.108;18.302;2022-07-03T11:41:46;11.93;;;5.22;;
35562;SDS011;21665;40.108;18.302;2022-07-03T11:44:17;14.98;;;6.28;;
35562;SDS011;21665;40.108;18.302;2022-07-03T11:46:47;12.10;;;6.53;;
35562;SDS011;21665;40.108;18.302;2022-07-03T11:49:22;19.15;;;7.35;;
35562;SDS011;21665;40.108;18.302;2022-07-03T11:51:58;11.90;;;5.35;;
35562;SDS011;21665;40.108;18.302;2022-07-03T11:54:31;14.88;;;6.72;;
35562;SDS011;21665;40.108;18.302;2022-07-03T11:57:15;9.93;;;5.38;;
35562;SDS011;21665;40.108;18.302;2022-07-03T11:59:42;11.05;;;5.88;;
35562;SDS011;21665;40.108;18.302;2022-07-03T12:02:08;14.73;;;6.00;;
35562;SDS011;21665;40.108;18.302;2022-07-03T12:04:38;10.65;;;5.32;;
35562;SDS011;21665;40.108;18.302;2022-07-03T12:07:07;10.85;;;5.78;;
35562;SDS011;21665;40.108;18.302;2022-07-03T12:09:34;8.00;;;5.47;;
35562;SDS011;21665;40.108;18.302;2022-07-03T12:12:03;14.57;;;5.93;;
35562;SDS011;21665;40.108;18.302;2022-07-03T12:14:38;11.90;;;5.60;;
35562;SDS011;21665;40.108;18.302;2022-07-03T12:17:23;11.57;;;5.82;;
35562;SDS011;21665;40.108;18.302;2022-07-03T12:19:52;11.27;;;7.20;;
35562;SDS011;21665;40.108;18.302;2022-07-03T12:22:22;9.38;;;5.78;;
35562;SDS011;21665;40.108;18.302;2022-07-03T12:25:07;11.52;;;6.30;;
35562;SDS011;21665;40.108;18.302;2022-07-03T12:27:43;9.70;;;6.30;;
35562;SDS011;21665;40.108;18.302;2022-07-03T12:30:12;8.38;;;6.40;;
35562;SDS011;21665;40.108;18.302;2022-07-03T12:32:47;11.25;;;6.20;;
35562;SDS011;21665;40.108;18.302;2022-07-03T12:35:14;9.30;;;5.47;;
35562;SDS011;21665;40.108;18.302;2022-07-03T12:37:53;11.50;;;6.22;;
35562;SDS011;21665;40.108;18.302;2022-07-03T12:40:21;12.82;;;6.40;;
35562;SDS011;21665;40.108;18.302;2022-07-03T12:42:51;9.10;;;6.32;;
35562;SDS011;21665;40.108;18.302;2022-07-03T12:45:24;11.20;;;6.15;;
35562;SDS011;21665;40.108;18.302;2022-07-03T12:47:59;14.27;;;5.93;;
35562;SDS011;21665;40.108;18.302;2022-07-03T12:53:27;13.48;;;7.07;;
35562;SDS011;21665;40.108;18.302;2022-07-03T12:55:59;10.75;;;6.30;;
35562;SDS011;21665;40.108;18.302;2022-07-03T12:58:28;8.63;;;7.07;;
35562;SDS011;21665;40.108;18.302;2022-07-03T13:01:26;12.85;;;7.20;;
35562;SDS011;21665;40.108;18.302;2022-07-03T13:04:03;12.10;;;7.22;;
35562;SDS011;21665;40.108;18.302;2022-07-03T13:06:32;9.90;;;6.95;;
35562;SDS011;21665;40.108;18.302;2022-07-03T13:08:59;10.93;;;7.25;;
35562;SDS011;21665;40.108;18.302;2022-07-03T13:11:32;10.85;;;7.13;;
35562;SDS011;21665;40.108;18.302;2022-07-03T13:14:02;9.57;;;7.18;;
35562;SDS011;21665;40.108;18.302;2022-07-03T13:16:42;9.98;;;6.75;;
35562;SDS011;21665;40.108;18.302;2022-07-03T13:19:34;7.65;;;6.38;;
35562;SDS011;21665;40.108;18.302;2022-07-03T13:22:00;10.02;;;6.65;;
35562;SDS011;21665;40.108;18.302;2022-07-03T13:24:26;10.85;;;7.45;;
35562;SDS011;21665;40.108;18.302;2022-07-03T13:26:56;11.68;;;7.95;;
35562;SDS011;21665;40.108;18.302;2022-07-03T13:29:24;13.55;;;7.88;;
35562;SDS011;21665;40.108;18.302;2022-07-03T13:31:51;9.82;;;7.57;;
35562;SDS011;21665;40.108;18.302;2022-07-03T13:34:18;11.77;;;8.18;;
35562;SDS011;21665;40.108;18.302;2022-07-03T13:36:45;14.55;;;8.57;;
35562;SDS011;21665;40.108;18.302;2022-07-03T13:39:15;10.00;;;7.07;;
35562;SDS011;21665;40.108;18.302;2022-07-03T13:41:42;10.15;;;8.10;;
35562;SDS011;21665;40.108;18.302;2022-07-03T13:44:08;8.40;;;7.47;;
35562;SDS011;21665;40.108;18.302;2022-07-03T13:46:35;10.52;;;7.50;;
35562;SDS011;21665;40.108;18.302;2022-07-03T13:49:01;11.35;;;7.47;;
35562;SDS011;21665;40.108;18.302;2022-07-03T13:51:37;11.63;;;7.75;;
35562;SDS011;21665;40.108;18.302;2022-07-03T13:54:03;9.70;;;7.90;;
35562;SDS011;21665;40.108;18.302;2022-07-03T13:56:30;12.88;;;8.02;;
35562;SDS011;21665;40.108;18.302;2022-07-03T13:58:56;8.77;;;7.88;;
35562;SDS011;21665;40.108;18.302;2022-07-03T14:01:23;15.85;;;8.55;;
35562;SDS011;21665;40.108;18.302;2022-07-03T14:03:52;12.35;;;7.55;;
35562;SDS011;21665;40.108;18.302;2022-07-03T14:06:18;10.40;;;7.63;;
35562;SDS011;21665;40.108;18.302;2022-07-03T14:08:45;12.07;;;8.27;;
35562;SDS011;21665;40.108;18.302;2022-07-03T14:11:12;11.60;;;8.45;;
35562;SDS011;21665;40.108;18.302;2022-07-03T14:13:40;14.10;;;8.23;;
35562;SDS011;21665;40.108;18.302;2022-07-03T14:16:07;11.43;;;8.05;;
35562;SDS011;21665;40.108;18.302;2022-07-03T14:18:33;13.13;;;7.63;;
35562;SDS011;21665;40.108;18.302;2022-07-03T14:21:00;9.18;;;8.23;;
35562;SDS011;21665;40.108;18.302;2022-07-03T14:23:28;14.20;;;8.93;;
35562;SDS011;21665;40.108;18.302;2022-07-03T14:25:56;12.57;;;9.57;;
35562;SDS011;21665;40.108;18.302;2022-07-03T14:28:22;12.35;;;9.02;;
35562;SDS011;21665;40.108;18.302;2022-07-03T14:31:07;11.43;;;10.15;;
35562;SDS011;21665;40.108;18.302;2022-07-03T14:33:50;12.20;;;9.88;;
35562;SDS011;21665;40.108;18.302;2022-07-03T14:36:17;10.95;;;9.80;;
35562;SDS011;21665;40.108;18.302;2022-07-03T14:38:44;10.93;;;8.70;;
35562;SDS011;21665;40.108;18.302;2022-07-03T14:41:11;12.25;;;10.07;;
35562;SDS011;21665;40.108;18.302;2022-07-03T14:43:39;11.13;;;9.40;;
35562;SDS011;21665;40.108;18.302;2022-07-03T14:46:05;12.40;;;10.38;;
35562;SDS011;21665;40.108;18.302;2022-07-03T14:48:32;11.77;;;10.43;;
35562;SDS011;21665;40.108;18.302;2022-07-03T14:50:58;10.38;;;9.27;;
35562;SDS011;21665;40.108;18.302;2022-07-03T14:53:25;10.18;;;9.18;;
35562;SDS011;21665;40.108;18.302;2022-07-03T14:55:51;10.52;;;9.48;;
35562;SDS011;21665;40.108;18.302;2022-07-03T14:58:21;9.82;;;8.93;;
35562;SDS011;21665;40.108;18.302;2022-07-03T15:00:54;11.00;;;9.43;;
35562;SDS011;21665;40.108;18.302;2022-07-03T15:03:28;12.18;;;10.20;;
35562;SDS011;21665;40.108;18.302;2022-07-03T15:06:00;10.82;;;9.88;;
35562;SDS011;21665;40.108;18.302;2022-07-03T15:16:01;10.82;;;9.77;;
35562;SDS011;21665;40.108;18.302;2022-07-03T15:18:28;10.70;;;9.75;;
35562;SDS011;21665;40.108;18.302;2022-07-03T15:20:55;11.70;;;10.30;;
35562;SDS011;21665;40.108;18.302;2022-07-03T15:23:26;10.35;;;9.45;;
35562;SDS011;21665;40.108;18.302;2022-07-03T15:25:53;11.88;;;10.57;;
35562;SDS011;21665;40.108;18.302;2022-07-03T15:28:22;11.27;;;10.10;;
35562;SDS011;21665;40.108;18.302;2022-07-03T15:30:52;13.57;;;9.85;;
35562;SDS011;21665;40.108;18.302;2022-07-03T15:33:22;10.35;;;9.32;;
35562;SDS011;21665;40.108;18.302;2022-07-03T15:35:59;11.23;;;10.13;;
35562;SDS011;21665;40.108;18.302;2022-07-03T15:38:37;9.68;;;8.88;;
35562;SDS011;21665;40.108;18.302;2022-07-03T15:41:11;9.82;;;8.60;;
35562;SDS011;21665;40.108;18.302;2022-07-03T15:44:18;9.07;;;8.02;;
35562;SDS011;21665;40.108;18.302;2022-07-03T15:49:40;10.55;;;8.48;;
35562;SDS011;21665;40.108;18.302;2022-07-03T15:52:18;8.93;;;7.40;;
35562;SDS011;21665;40.108;18.302;2022-07-03T15:57:23;10.68;;;7.57;;
35562;SDS011;21665;40.108;18.302;2022-07-03T16:00:23;13.65;;;9.60;;
35562;SDS011;21665;40.108;18.302;2022-07-03T16:05:35;12.35;;;7.85;;
35562;SDS011;21665;40.108;18.302;2022-07-03T16:08:10;9.20;;;8.05;;
35562;SDS011;21665;40.108;18.302;2022-07-03T16:13:27;11.07;;;7.22;;
35562;SDS011;21665;40.108;18.302;2022-07-03T16:15:56;8.43;;;7.03;;
35562;SDS011;21665;40.108;18.302;2022-07-03T16:18:26;17.30;;;8.43;;
35562;SDS011;21665;40.108;18.302;2022-07-03T16:20:54;11.43;;;7.68;;
35562;SDS011;21665;40.108;18.302;2022-07-03T16:23:25;8.80;;;7.30;;
35562;SDS011;21665;40.108;18.302;2022-07-03T16:26:13;11.40;;;7.45;;
35562;SDS011;21665;40.108;18.302;2022-07-03T16:28:44;10.85;;;6.70;;
35562;SDS011;21665;40.108;18.302;2022-07-03T16:31:15;9.25;;;6.93;;
35562;SDS011;21665;40.108;18.302;2022-07-03T16:33:51;11.32;;;7.25;;
35562;SDS011;21665;40.108;18.302;2022-07-03T16:36:26;9.00;;;8.15;;
35562;SDS011;21665;40.108;18.302;2022-07-03T16:38:57;16.95;;;8.30;;
35562;SDS011;21665;40.108;18.302;2022-07-03T16:41:30;9.68;;;8.00;;
35562;SDS011;21665;40.108;18.302;2022-07-03T16:44:11;8.43;;;7.22;;
35562;SDS011;21665;40.108;18.302;2022-07-03T16:46:40;8.68;;;7.78;;
35562;SDS011;21665;40.108;18.302;2022-07-03T16:49:11;10.95;;;7.57;;
35562;SDS011;21665;40.108;18.302;2022-07-03T16:51:41;12.60;;;8.80;;
35562;SDS011;21665;40.108;18.302;2022-07-03T16:54:10;12.15;;;8.40;;
35562;SDS011;21665;40.108;18.302;2022-07-03T16:56:37;10.43;;;8.60;;
35562;SDS011;21665;40.108;18.302;2022-07-03T16:59:04;10.48;;;8.15;;
35562;SDS011;21665;40.108;18.302;2022-07-03T17:01:37;10.45;;;8.70;;
35562;SDS011;21665;40.108;18.302;2022-07-03T17:04:08;10.30;;;9.30;;
35562;SDS011;21665;40.108;18.302;2022-07-03T17:06:38;13.88;;;8.48;;
35562;SDS011;21665;40.108;18.302;2022-07-03T17:09:07;11.15;;;9.20;;
35562;SDS011;21665;40.108;18.302;2022-07-03T17:11:39;23.58;;;10.02;;
35562;SDS011;21665;40.108;18.302;2022-07-03T17:14:10;10.48;;;9.45;;
35562;SDS011;21665;40.108;18.302;2022-07-03T17:16:49;12.20;;;10.05;;
35562;SDS011;21665;40.108;18.302;2022-07-03T17:19:23;10.65;;;9.52;;
35562;SDS011;21665;40.108;18.302;2022-07-03T17:21:52;10.05;;;9.05;;
35562;SDS011;21665;40.108;18.302;2022-07-03T17:24:21;10.82;;;9.52;;
35562;SDS011;21665;40.108;18.302;2022-07-03T17:26:53;13.15;;;8.95;;
35562;SDS011;21665;40.108;18.302;2022-07-03T17:29:28;11.30;;;9.27;;
35562;SDS011;21665;40.108;18.302;2022-07-03T17:32:00;12.73;;;9.30;;
35562;SDS011;21665;40.108;18.302;2022-07-03T17:34:32;12.18;;;8.02;;
35562;SDS011;21665;40.108;18.302;2022-07-03T17:37:04;12.13;;;8.10;;
35562;SDS011;21665;40.108;18.302;2022-07-03T17:39:32;10.48;;;7.30;;
35562;SDS011;21665;40.108;18.302;2022-07-03T17:42:04;13.05;;;7.20;;
35562;SDS011;21665;40.108;18.302;2022-07-03T17:44:39;9.52;;;6.78;;
35562;SDS011;21665;40.108;18.302;2022-07-03T17:47:11;10.45;;;6.82;;
35562;SDS011;21665;40.108;18.302;2022-07-03T17:49:39;11.55;;;6.57;;
35562;SDS011;21665;40.108;18.302;2022-07-03T17:52:14;14.90;;;8.30;;
35562;SDS011;21665;40.108;18.302;2022-07-03T17:54:45;15.13;;;8.00;;
35562;SDS011;21665;40.108;18.302;2022-07-03T17:57:13;10.77;;;6.63;;
35562;SDS011;21665;40.108;18.302;2022-07-03T17:59:59;11.88;;;5.85;;
35562;SDS011;21665;40.108;18.302;2022-07-03T18:02:29;12.48;;;6.32;;
35562;SDS011;21665;40.108;18.302;2022-07-03T18:04:56;14.40;;;6.22;;
35562;SDS011;21665;40.108;18.302;2022-07-03T18:10:33;10.07;;;4.50;;
35562;SDS011;21665;40.108;18.302;2022-07-03T18:13:24;12.10;;;4.43;;
35562;SDS011;21665;40.108;18.302;2022-07-03T18:16:04;11.23;;;4.30;;
35562;SDS011;21665;40.108;18.302;2022-07-03T18:18:37;13.18;;;4.60;;
35562;SDS011;21665;40.108;18.302;2022-07-03T18:21:10;12.80;;;4.00;;
35562;SDS011;21665;40.108;18.302;2022-07-03T18:23:49;11.60;;;4.35;;
35562;SDS011;21665;40.108;18.302;2022-07-03T18:26:20;12.50;;;3.55;;
35562;SDS011;21665;40.108;18.302;2022-07-03T18:28:52;11.57;;;3.30;;
35562;SDS011;21665;40.108;18.302;2022-07-03T18:31:21;15.40;;;4.22;;
35562;SDS011;21665;40.108;18.302;2022-07-03T18:33:49;14.00;;;4.50;;
35562;SDS011;21665;40.108;18.302;2022-07-03T18:36:17;6.90;;;3.17;;
35562;SDS011;21665;40.108;18.302;2022-07-03T18:38:52;11.50;;;3.67;;
35562;SDS011;21665;40.108;18.302;2022-07-03T18:41:18;10.32;;;4.22;;
35562;SDS011;21665;40.108;18.302;2022-07-03T18:43:45;9.25;;;3.90;;
35562;SDS011;21665;40.108;18.302;2022-07-03T18:46:12;9.43;;;4.00;;
35562;SDS011;21665;40.108;18.302;2022-07-03T18:48:39;9.95;;;3.53;;
35562;SDS011;21665;40.108;18.302;2022-07-03T18:53:49;15.80;;;4.63;;
35562;SDS011;21665;40.108;18.302;2022-07-03T18:59:27;11.55;;;3.80;;
35562;SDS011;21665;40.108;18.302;2022-07-03T19:01:59;11.95;;;3.72;;
